• Join FlightAware (Why Join?)
  • Login
  • US Flag 
10:50AM EDT


 

Airport Tracker/Info


-or-


 

Live Flight TrackerFlight Track Log ✈ JBU1269 ✈ 30-Jun-2013 ✈ KBOS - KFLL

Flight Track Log - Related Links

Times and Time Zones

All times are in EDT time to prevent confusion due to time zone crossing. See the JBU1269 flight status page for this flight to view local times or setup timezone preferences in your user account.

Time Position Orientation Groundspeed Altitude Reporting Facility
EDT Latitude Longitude Course Direction KTS MPH feet Rate Location/Type
11:01PM 42.3500 -70.9833 200° South 167 192 700  Level KA90
11:02PM 42.3333 -70.9333 114° Southeast 194 223 2,400 1,620 Climbing KA90
11:03PM 42.3206 -70.8536 102° East 248 285 4,100 2,460 Climbing Boston Center
11:04PM 42.2345 -70.6506 160° South  Level FlightAware Approximate
11:04PM 42.3106 -70.7417 97° East 263 303 7,600  Level Boston Center
11:05PM 42.1280 -70.6027 200° South  Level FlightAware Approximate
11:05PM 42.2475 -70.6983 153° Southeast 255 293 10,500  Level Boston Center
11:06PM 42.0216 -70.6559 200° South  Level FlightAware Approximate
11:06PM 42.1683 -70.7089 186° South 228 262 12,700  Level Boston Center
11:07PM 42.0789 -70.7169 184° South 278 320 14,700 1,800 Climbing Boston Center
11:08PM 41.9853 -70.7308 186° South 317 365 16,400 2,100 Climbing Boston Center
11:09PM 41.9008 -70.7917 208° Southwest 331 381 18,900 2,100 Climbing Boston Center
11:10PM 41.8289 -70.8686 219° Southwest 336 387 20,700 1,380 Climbing Boston Center
11:11PM 41.7508 -70.9569 220° Southwest 350 403 21,700 1,620 Climbing Boston Center
11:12PM 41.6664 -71.0450 218° Southwest 374 430 24,000 1,860 Climbing Boston Center
11:13PM 41.5925 -71.1300 221° Southwest 369 425 25,500 900 Climbing Boston Center
11:14PM 41.5081 -71.2175 218° Southwest 377 434 25,800 600 Climbing Boston Center
11:15PM 41.4214 -71.3133 220° Southwest 392 451 26,700 900 Climbing Boston Center
11:16PM 41.3308 -71.4089 218° Southwest 410 472 27,700 1,020 Climbing Boston Center
11:17PM 41.2419 -71.5069 220° Southwest 422 486 28,800 900 Climbing Boston Center
11:18PM 41.1572 -71.6131 223° Southwest 422 486 29,600 960 Climbing Boston Center
11:19PM 41.0811 -71.7325 230° Southwest 422 486 30,800 1,140 Climbing Boston Center
11:20PM 40.9983 -71.8461 226° Southwest 427 491 31,900 1,140 Climbing Boston Center
11:21PM 40.9156 -71.9567 225° Southwest 427 491 33,100 1,140 Climbing Boston Center
11:22PM 40.8325 -72.0642 224° Southwest 422 486 34,200 1,020 Climbing Boston Center
11:23PM 40.7536 -72.1717 226° Southwest 422 486 35,200 900 Climbing Boston Center
11:24PM 40.6603 -72.2814 222° Southwest 422 486 36,000 360 Climbing Boston Center
11:25PM 40.5811 -72.3881 226° Southwest 417 480 36,000  Level Boston Center
11:26PM 40.4956 -72.4892 222° Southwest 412 474 36,000 -60 Level Boston Center
11:27PM 40.4144 -72.5928 224° Southwest 412 474 35,900 -60 Descending Boston Center
11:28PM 40.3308 -72.6958 223° Southwest 406 467 35,900  Level Boston Center
11:29PM 40.2533 -72.8017 226° Southwest 411 473 36,000  Climbing Boston Center
11:30PM 40.1800 -72.8992 225° Southwest 411 473 36,000  Level Boston Center
11:32PM 40.0008 -73.1322 225° Southwest 419 482 36,000  Level Washington Center
11:33PM 39.9194 -73.2325 223° Southwest 419 482 36,000  Level Washington Center
11:34PM 39.8361 -73.3381 224° Southwest 419 482 36,000  Level Washington Center
11:35PM 39.7442 -73.4433 221° Southwest 419 482 36,000  Level Washington Center
11:36PM 39.6647 -73.5428 224° Southwest 411 473 36,000  Level Washington Center
11:37PM 39.5831 -73.6447 224° Southwest 411 473 36,000  Level Washington Center
11:38PM 39.5014 -73.7467 224° Southwest 411 473 36,000  Level Washington Center
11:39PM 39.4172 -73.8456 222° Southwest 411 473 36,000  Level Washington Center
11:40PM 39.3333 -73.9494 224° Southwest 411 473 36,000  Level Washington Center
11:41PM 39.2533 -74.0478 224° Southwest 411 473 36,000  Level Washington Center
11:42PM 39.1567 -74.1356 215° Southwest 416 479 36,000 -60 Level Washington Center
11:43PM 39.0617 -74.2122 212° Southwest 416 479 35,900  Descending Washington Center
11:44PM 38.9686 -74.2942 214° Southwest 416 479 36,000  Climbing Washington Center
11:45PM 38.8903 -74.3594 213° Southwest 416 479 36,000  Level Washington Center
11:46PM 38.7847 -74.4439 212° Southwest 416 479 36,000  Level Washington Center
11:47PM 38.6875 -74.5278 214° Southwest 416 479 36,000  Level Washington Center
11:48PM 38.5903 -74.6064 212° Southwest 411 473 36,000  Level Washington Center
11:49PM 38.4969 -74.6844 213° Southwest 411 473 36,000 -60 Level Washington Center
11:50PM 38.3994 -74.7625 212° Southwest 411 473 35,900  Descending Washington Center
11:51PM 38.2981 -74.8589 217° Southwest 411 473 36,000  Climbing Washington Center
11:52PM 38.1983 -74.9339 211° Southwest 411 473 36,000  Level Washington Center
11:53PM 38.1028 -75.0111 212° Southwest 417 480 36,000  Level Washington Center
11:54PM 38.0053 -75.0883 212° Southwest 417 480 36,000  Level Washington Center
11:55PM 37.9094 -75.1681 213° Southwest 417 480 36,000  Level Washington Center
11:56PM 37.8117 -75.2447 212° Southwest 417 480 36,000 -60 Level Washington Center
11:57PM 37.7139 -75.3214 212° Southwest 417 480 35,900  Descending Washington Center
11:58PM 37.6161 -75.4006 213° Southwest 417 480 36,000  Climbing Washington Center
11:59PM 37.5181 -75.4792 212° Southwest 417 480 36,000  Level Washington Center
12:00AM 37.4222 -75.5553 212° Southwest 417 480 36,000  Level Washington Center
12:01AM 37.3242 -75.6336 212° Southwest 417 480 36,000 -60 Level Washington Center
12:02AM 37.2261 -75.7092 212° Southwest 417 480 35,900  Descending Washington Center
12:03AM 37.1281 -75.7872 212° Southwest 417 480 36,000  Climbing Washington Center
12:04AM 37.0319 -75.8625 212° Southwest 417 480 36,000  Level Washington Center
12:05AM 36.9358 -75.9297 209° Southwest 428 493 36,000  Level Washington Center
12:06AM 36.8397 -76.0072 213° Southwest 428 493 36,000  Level Washington Center
12:07AM 36.7392 -76.0844 212° Southwest 428 493 36,000  Level Washington Center
12:08AM 36.6386 -76.1667 213° Southwest 433 498 36,000  Level Washington Center
12:09AM 36.5403 -76.2408 211° Southwest 433 498 36,000  Level Washington Center
12:10AM 36.4417 -76.3150 211° Southwest 428 493 36,000  Level Washington Center
12:11AM 36.3453 -76.3889 212° Southwest 428 493 36,000  Level Washington Center
12:12AM 36.2447 -76.4650 211° Southwest 428 493 36,000  Level Washington Center
12:13AM 36.1461 -76.5411 212° Southwest 428 493 36,000  Level Washington Center
12:14AM 36.0453 -76.6169 211° Southwest 428 493 36,000  Level Washington Center
12:15AM 35.9486 -76.6928 212° Southwest 428 493 36,000  Level Washington Center
12:16AM 35.8478 -76.7683 211° Southwest 428 493 36,000 -60 Level Washington Center
12:17AM 35.7489 -76.8383 210° Southwest 428 493 35,900  Descending Washington Center
12:18AM 35.6500 -76.9136 212° Southwest 428 493 36,000  Climbing Washington Center
12:19AM 35.5447 -76.9961 213° Southwest 428 493 36,000  Level Washington Center
12:20AM 35.4439 -77.0708 211° Southwest 422 486 36,000  Level Washington Center
12:21AM 35.3469 -77.1453 212° Southwest 422 486 36,000  Level Washington Center
12:22AM 35.2417 -77.2197 210° Southwest 428 493 36,000  Level Washington Center
12:23AM 35.1467 -77.2914 212° Southwest 428 493 36,000  Level Washington Center
12:24AM 35.0453 -77.3678 212° Southwest 428 493 36,000  Level Washington Center
12:25AM 34.9483 -77.4392 211° Southwest 428 493 36,000  Level Washington Center
12:26AM 34.8472 -77.5078 209° Southwest 428 493 36,000  Level Washington Center
12:27AM 34.7400 -77.5558 200° South 423 487 36,000  Level Washington Center
12:28AM 34.6286 -77.5961 197° South 418 481 36,000 -60 Level Washington Center
12:29AM 34.5153 -77.6336 195° South 418 481 35,900 -60 Descending Washington Center
12:30AM 34.4042 -77.6736 197° South 423 487 35,900  Level Washington Center
12:31AM 34.2928 -77.7111 196° South 423 487 36,000 60 Climbing Washington Center
12:32AM 34.1858 -77.7486 196° South 423 487 36,100  Climbing Washington Center
12:33AM 34.0011 -77.8078 195° South 425 489 36,000 -60 Descending Jacksonville Center
12:34AM 33.8881 -77.8519 198° South 431 496 36,000  Level Jacksonville Center
12:35AM 33.7747 -77.8883 195° South 431 496 36,000  Level Jacksonville Center
12:36AM 33.6572 -77.9275 196° South 431 496 36,000  Level Jacksonville Center
12:37AM 33.5422 -77.9686 197° South 431 496 36,000  Level Jacksonville Center
12:38AM 33.4267 -78.0050 195° South 431 496 36,000 -60 Level Jacksonville Center
12:39AM 33.3114 -78.0461 197° South 431 496 35,900  Descending Jacksonville Center
12:40AM 33.2000 -78.0819 195° South 431 496 36,000  Climbing Jacksonville Center
12:41AM 33.0825 -78.1206 195° South 431 496 36,000 -60 Level Jacksonville Center
12:42AM 32.9714 -78.1586 196° South 431 496 35,900 -60 Descending Jacksonville Center
12:43AM 32.8561 -78.1992 196° South 431 496 35,900  Level Jacksonville Center
12:44AM 32.7406 -78.2375 196° South 431 496 36,000  Climbing Jacksonville Center
12:45AM 32.6250 -78.2753 195° South 431 496 36,000  Level Jacksonville Center
12:46AM 32.5117 -78.3108 195° South 431 496 36,000 -60 Level Jacksonville Center
12:47AM 32.3983 -78.3533 198° South 431 496 35,900  Descending Jacksonville Center
12:48AM 32.2808 -78.3936 196° South 431 496 36,000  Climbing Jacksonville Center
12:49AM 32.1694 -78.4308 196° South 431 496 36,000  Level Jacksonville Center
12:50AM 32.0558 -78.4683 196° South 431 496 36,000  Level Jacksonville Center
12:51AM 31.9422 -78.5056 196° South 431 496 36,000 -60 Level Jacksonville Center
12:52AM 31.8308 -78.5428 196° South 431 496 35,900 -60 Descending Jacksonville Center
12:53AM 31.7194 -78.5797 196° South 431 496 35,900  Level Jacksonville Center
12:54AM 31.6078 -78.6142 195° South 431 496 35,900  Level Jacksonville Center
12:55AM 31.4944 -78.6533 196° South 431 496 36,000  Climbing Jacksonville Center
12:56AM 31.3786 -78.6903 195° South 439 505 36,000  Level Jacksonville Center
12:57AM 31.2672 -78.7244 195° South 428 493 36,000 -60 Level Jacksonville Center
12:58AM 31.1536 -78.7611 195° South 428 493 35,900  Descending Jacksonville Center
12:59AM 31.0442 -78.7975 196° South 427 491 36,000  Climbing Jacksonville Center
01:00AM 30.9386 -78.8311 195° South 427 491 36,000  Level Jacksonville Center
01:01AM 30.8231 -78.8697 196° South 432 497 36,000 -60 Level Jacksonville Center
01:02AM 30.7094 -78.9061 195° South 427 491 35,900  Descending Jacksonville Center
01:03AM 30.5936 -78.9422 195° South 428 493 36,000  Climbing Jacksonville Center
01:04AM 30.4778 -78.9761 194° South 433 498 36,000  Level Jacksonville Center
01:05AM 30.3619 -79.0119 195° South 436 502 36,000  Level Jacksonville Center
01:07AM 30.2064 -79.0528 193° South 428 493 36,000  Level Miami Center
01:08AM 30.0722 -79.0869 192° South 430 495 36,000  Level Miami Center
01:09AM 29.9656 -79.1456 205° Southwest 432 497 36,000  Level Miami Center
01:10AM 29.8689 -79.2247 215° Southwest 428 493 36,000  Level Miami Center
01:11AM 29.7719 -79.3031 215° Southwest 426 490 36,000  Level Miami Center
01:12AM 29.6756 -79.3819 215° Southwest 427 491 36,000  Level Miami Center
01:13AM 29.5856 -79.4719 221° Southwest 429 494 36,000  Level Miami Center
01:14AM 29.4972 -79.5636 222° Southwest 429 494 36,000  Level Miami Center
01:15AM 29.4022 -79.6475 218° Southwest 430 495 36,000  Level Miami Center
01:16AM 29.3011 -79.7222 213° Southwest 432 497 36,000  Level Miami Center
01:17AM 29.1903 -79.7728 202° Southwest 428 493 36,000  Level Miami Center
01:18AM 29.0725 -79.8069 194° South 439 505 36,000  Level Miami Center
01:19AM 28.9319 -79.8447 193° South 433 498 36,000  Level Miami Center
01:20AM 28.8128 -79.8736 192° South 436 502 36,000 -300 Level Miami Center
01:21AM 28.6939 -79.8956 189° South 431 496 35,400 -1,140 Descending Miami Center
01:22AM 28.5714 -79.9053 184° South 438 504 33,800 -1,560 Descending Miami Center
01:23AM 28.4528 -79.9153 184° South 445 512 32,300 -1,440 Descending Miami Center
01:24AM 28.3225 -79.9289 185° South 449 517 30,900 -1,260 Descending Miami Center
01:25AM 28.2025 -79.9394 184° South 448 516 29,900 -1,020 Descending Miami Center
01:26AM 28.0736 -79.9525 185° South 443 510 28,900 -1,020 Descending Miami Center
01:27AM 27.9572 -79.9639 185° South 437 503 27,900 -1,020 Descending Miami Center
01:28AM 27.8319 -79.9772 185° South 433 498 26,900 -900 Descending Miami Center
01:29AM 27.7364 -79.9858 185° South 430 495 26,100 -960 Descending Miami Center
01:30AM 27.5956 -79.9997 185° South 422 486 25,000 -1,320 Descending Miami Center
01:31AM 27.4828 -80.0181 188° South 408 470 23,500 -1,500 Descending Miami Center
01:32AM 27.3944 -80.0358 190° South 402 463 22,000 -1,980 Descending Miami Center
01:33AM 27.2650 -80.0597 189° South 391 450 19,600 -2,640 Descending Miami Center
01:34AM 27.1561 -80.0792 189° South 386 444 16,800 -2,460 Descending Miami Center
01:35AM 27.0542 -80.0967 189° South 380 437 14,700 -1,740 Descending Miami Center
01:36AM 26.9603 -80.1117 188° South 357 411 13,400 -1,380 Descending Miami Center
01:37AM 26.8694 -80.1283 189° South 322 371 12,100 -1,320 Descending Miami Center
01:38AM 26.7836 -80.1414 188° South 312 359 10,900 -1,200 Descending Miami Center
01:39AM 26.7028 -80.1558 189° South 295 339 9,700 -1,200 Descending Miami Center
01:40AM 26.6289 -80.1694 189° South 270 311 8,600 -840 Descending Miami Center
01:41AM 26.5561 -80.1811 188° South 266 306 8,000 -300 Descending Miami Center
01:42AM 26.4817 -80.1928 188° South 269 310 8,000  Level Miami Center
01:44AM 26.3166 -80.1766 119° Southeast  Level Estimated
01:51AM 26.0726 -80.1527 268° West  Level Estimated
01:52AM 26.0726 -80.1527 277° West  Level Estimated
01:53AM 26.0726 -80.1527 277° West  Level Estimated
01:54AM 26.0726 -80.1527 97° East  Level Estimated
01:55AM 26.0726 -80.1527 99° East  Level Estimated
01:56AM 26.0726 -80.1527 103° East  Level Estimated
01:57AM 26.0726 -80.1527 90° East  Level Estimated
01:58AM 26.0671 -80.1522 103° East  Level FlightAware Approximate
01:59AM 26.0667 -80.1500 103° East  Level FlightAware Approximate
02:00AM 26.0726 -80.1527 103° East  Level Estimated
02:01AM 26.0667 -80.1500 103° East  Level FlightAware Approximate
02:02AM 26.0726 -80.1527 103° East  Level Estimated
02:03AM 26.0667 -80.1500 103° East  Level FlightAware Approximate
02:04AM 26.0726 -80.1527 103° East  Level Estimated
02:05AM 26.0667 -80.1500 103° East  Level FlightAware Approximate
02:06AM 26.0726 -80.1527 103° East  Level Estimated
02:07AM 26.0667 -80.1500 103° East  Level FlightAware Approximate
02:08AM 26.0726 -80.1527 103° East  Level Estimated
02:09AM 26.0667 -80.1500 103° East  Level FlightAware Approximate
02:10AM 26.0726 -80.1527 103° East  Level Estimated
02:11AM 26.0667 -80.1500 103° East  Level FlightAware Approximate
02:12AM 26.0726 -80.1527 103° East  Level Estimated
02:13AM 26.0667 -80.1500 103° East  Level FlightAware Approximate
02:14AM 26.0726 -80.1527 103° East  Level Estimated
02:15AM 26.0667 -80.1500 103° East  Level FlightAware Approximate
02:16AM 26.0726 -80.1527 103° East  Level Estimated
02:17AM 26.0667 -80.1500 103° East  Level FlightAware Approximate
02:18AM 26.0726 -80.1527 103° East  Level Estimated
02:19AM 26.0667 -80.1500 103° East  Level FlightAware Approximate
02:20AM 26.0726 -80.1527 103° East  Level Estimated
02:21AM 26.0667 -80.1500 103° East  Level FlightAware Approximate
02:22AM 26.0726 -80.1527 103° East  Level Estimated